Huvudsida
METAR-TAF:

METAR-TAF

Flygplatser :

Recifes internationella flygplats

Recife, Pernambuco, Brasilien

latitud: 08-08S, longitud: 034-55W, höjd: 19 m

Aktuellt väderrapport

Denna rapport gjordes för 52 minuter sedan, klockan 20:00 UTC
Vind 8 kt från ost
Temperatur 27°C
Fuktighet 74%
Tryck 1013 hPa
Sikt 10 km eller mer
Spridda moln på en höjd av 2500 ft

METAR: SBRF 162000Z 09008KT 9999 SCT025 27/22 Q1013

Tid: 17:52 (20:52 UTC)

Väderprognos

Denna rapport gjordes för 4 timmar och 52 minuter sedan, klockan 16:00 UTC
Prognos gäller från 16 kl. 18 UTC till 17 kl. 18 UTC
Vind 10 kt från ost
Sikt: 8000 m
Spridda moln på en höjd av 2200 ft
Spridda moln på en höjd av 4500 ft
Sannolikhet 30% :
Temporärt
från 17 kl. 03 UTC till 17 kl. 05 UTC
Sikt: 6000 m
Spridda moln på en höjd av 1000 ft
Brutna moln på en höjd av 1500 ft
regnskurar

TAF: SBRF 161600Z 1618/1718 09010KT 8000 SCT022 SCT045 TN26/1708Z TX29/1715Z PROB30 TEMPO 1703/1705 6000 SHRA SCT010 BKN015 RMK PEU

Aktuella väderrapporter och prognoser från 4000 flygplatser (METAR- och TAF-rapporter).

De tillgängliga stationerna syns som gula och röda prickar på kartan.

För musen över prickarna för att se namnen på stationerna.

Klicka sedan för att få väderrapporter och prognoser.

För att ändra kartan: Klicka på de gröna knapparna med ett svart kors på för att zooma in; den gröna knappen med ett streck på för att zooma ut; eller på de gröna pilarna för angränsande kartor.


METAR-TAF: